Time;durP1;ratioP1;P1;durP2;ratioP2;P2;SDS_P1;SDS_P2;PMS_P1;PMS_P2;Temp;Humidity;BMP_temperature;BMP_pressure;BME280_temperature;BME280_humidity;BME280_pressure;Samples;Min_cycle;Max_cycle;Signal;HPM_P1;HPM_P2
2022/08/18 00:01:47;;;;;;;;;;;563.80;2432.00;;;;;;5072487;28;20252;-56
2022/08/18 00:04:13;;;;;;;;;;;563.80;2432.00;;;;;;5073030;28;19912;-56
2022/08/18 00:06:39;;;;;;;;;;;564.00;2432.00;;;;;;5072727;28;19915;-61
2022/08/18 00:09:06;;;;;;;;;;;563.90;2432.00;;;;;;5073020;28;20361;-61
2022/08/18 00:11:33;;;;;;;;;;;564.00;2432.00;;;;;;5072886;28;19909;-56
2022/08/18 00:13:59;;;;;;;;;;;564.00;2432.00;;;;;;5072728;28;19909;-55
2022/08/18 00:16:24;;;;;;;;;;;564.00;2432.00;;;;;;5072740;28;19985;-61
2022/08/18 00:18:50;;;;;;;;;;;564.00;2432.00;;;;;;5072727;28;19920;-61
2022/08/18 00:21:16;;;;;;;;;;;563.90;2432.00;;;;;;5072461;28;19916;-56
2022/08/18 00:23:42;;;;;;;;;;;564.00;2432.00;;;;;;5072515;28;19916;-56
2022/08/18 00:26:07;;;;;;;;;;;563.90;2432.00;;;;;;5072234;28;19909;-61
2022/08/18 00:28:33;;;;;;;;;;;563.80;2432.00;;;;;;5072462;28;20157;-64
2022/08/18 00:30:58;;;;;;;;;;;563.90;2432.00;;;;;;5072096;28;19920;-61
2022/08/18 00:33:24;;;;;;;;;;;563.90;2432.00;;;;;;5072315;28;20231;-56
2022/08/18 00:35:50;;;;;;;;;;;563.80;2432.00;;;;;;5071996;28;20011;-61
2022/08/18 00:38:16;;;;;;;;;;;563.80;2432.00;;;;;;5072000;28;19952;-56
2022/08/18 00:40:43;;;;;;;;;;;563.80;2432.00;;;;;;5072141;28;19908;-60
2022/08/18 00:43:16;;;;;;;;;;;563.60;2432.00;;;;;;5071915;28;19914;-61
2022/08/18 00:45:42;;;;;;;;;;;563.60;2432.00;;;;;;5072214;28;19954;-61
2022/08/18 00:48:09;;;;;;;;;;;563.60;2432.00;;;;;;5071911;28;19909;-61
2022/08/18 00:50:48;;;;;;;;;;;563.60;2432.00;;;;;;5072163;28;19960;-57
2022/08/18 00:53:46;;;;;;;;;;;563.60;2432.00;;;;;;5072103;28;19908;-61
2022/08/18 00:56:23;;;;;;;;;;;563.60;2432.00;;;;;;5010218;28;20284;-56
2022/08/18 00:58:52;;;;;;;;;;;563.50;2432.00;;;;;;5010018;28;19974;-61
2022/08/18 01:01:18;;;;;;;;;;;563.50;2432.00;;;;;;5009754;28;20015;-62
2022/08/18 01:03:51;;;;;;;;;;;563.50;2432.00;;;;;;5009956;28;19913;-55
2022/08/18 01:06:34;;;;;;;;;;;563.30;2432.00;;;;;;5009874;28;19910;-61
2022/08/18 01:09:00;;;;;;;;;;;563.40;2432.00;;;;;;5009950;28;19909;-61
2022/08/18 01:11:26;;;;;;;;;;;563.30;2432.00;;;;;;5009703;28;19910;-56
2022/08/18 01:13:52;;;;;;;;;;;563.30;2432.00;;;;;;5010019;28;19956;-61
2022/08/18 01:21:49;;;;;;;;;;;563.20;2432.00;;;;;;5009953;28;20037;-60
2022/08/18 01:24:15;;;;;;;;;;;563.20;2432.00;;;;;;5009508;28;19923;-56
2022/08/18 01:26:45;;;;;;;;;;;538.50;2406.40;;;;;;5009375;28;19996;-56
2022/08/18 01:29:10;;;;;;;;;;;538.50;2406.40;;;;;;5009669;28;19959;-61
2022/08/18 01:31:38;;;;;;;;;;;538.40;2406.40;;;;;;5035911;28;19995;-55
2022/08/18 01:34:08;;;;;;;;;;;538.40;2406.40;;;;;;5071402;28;19936;-61
2022/08/18 01:36:36;;;;;;;;;;;538.40;2406.40;;;;;;5071196;28;19975;-60
2022/08/18 01:39:03;;;;;;;;;;;538.40;2406.40;;;;;;5071351;28;19935;-55
2022/08/18 01:41:29;;;;;;;;;;;538.30;2406.40;;;;;;5070993;28;19915;-60
2022/08/18 01:43:55;;;;;;;;;;;538.30;2406.40;;;;;;5071212;28;19916;-56
2022/08/18 01:46:22;;;;;;;;;;;538.20;2406.40;;;;;;5071264;28;19908;-57
2022/08/18 01:48:47;;;;;;;;;;;538.20;2406.40;;;;;;5071101;28;19916;-55
2022/08/18 01:51:13;;;;;;;;;;;538.20;2406.40;;;;;;5071241;28;19909;-60
2022/08/18 01:53:39;;;;;;;;;;;538.10;2406.40;;;;;;5070874;28;19909;-61
2022/08/18 01:56:05;;;;;;;;;;;538.10;2406.40;;;;;;5071138;28;19924;-60
2022/08/18 01:58:32;;;;;;;;;;;538.10;2406.40;;;;;;5071106;28;20252;-55
2022/08/18 02:01:00;;;;;;;;;;;538.10;2406.40;;;;;;5070563;28;20333;-61
2022/08/18 02:03:39;;;;;;;;;;;538.10;2406.40;;;;;;5070964;28;19936;-55
2022/08/18 02:06:08;;;;;;;;;;;538.00;2406.40;;;;;;5071256;28;20741;-56
2022/08/18 02:08:34;;;;;;;;;;;537.90;2406.40;;;;;;5070981;28;20420;-61
2022/08/18 02:11:02;;;;;;;;;;;537.90;2406.40;;;;;;5071005;28;20263;-60
2022/08/18 02:13:28;;;;;;;;;;;537.90;2406.40;;;;;;5070805;28;20007;-55
2022/08/18 02:15:53;;;;;;;;;;;537.80;2406.40;;;;;;5071011;28;19963;-61
2022/08/18 02:18:20;;;;;;;;;;;537.90;2406.40;;;;;;5070754;28;20313;-61
2022/08/18 02:20:46;;;;;;;;;;;537.80;2406.40;;;;;;5070552;28;19951;-55
2022/08/18 02:23:12;;;;;;;;;;;537.80;2406.40;;;;;;5071076;28;19912;-61
2022/08/18 02:25:38;;;;;;;;;;;537.80;2406.40;;;;;;5070663;28;20350;-61
2022/08/18 02:28:04;;;;;;;;;;;537.70;2406.40;;;;;;5070760;28;20270;-61
2022/08/18 02:30:30;;;;;;;;;;;537.80;2406.40;;;;;;5070644;28;19912;-56
2022/08/18 02:32:56;;;;;;;;;;;537.80;2406.40;;;;;;5070490;28;19935;-55
2022/08/18 02:35:22;;;;;;;;;;;537.70;2406.40;;;;;;5070627;28;20366;-55
2022/08/18 02:37:47;;;;;;;;;;;537.70;2406.40;;;;;;5072499;28;19916;-56
2022/08/18 02:40:14;;;;;;;;;;;537.60;2406.40;;;;;;5074673;28;19909;-61
2022/08/18 02:42:40;;;;;;;;;;;537.70;2406.40;;;;;;5074268;28;19939;-61
2022/08/18 02:45:06;;;;;;;;;;;537.70;2406.40;;;;;;5074251;28;19915;-56
2022/08/18 02:47:32;;;;;;;;;;;537.70;2406.40;;;;;;5074717;28;19908;-55
2022/08/18 02:49:58;;;;;;;;;;;512.90;2380.80;;;;;;5074293;28;19991;-61
2022/08/18 02:52:31;;;;;;;;;;;512.90;2380.80;;;;;;5074576;28;19915;-56
2022/08/18 02:54:57;;;;;;;;;;;512.90;2380.80;;;;;;5074115;28;20424;-61
2022/08/18 02:57:23;;;;;;;;;;;512.90;2380.80;;;;;;5074482;28;19923;-56
2022/08/18 02:59:48;;;;;;;;;;;512.90;2380.80;;;;;;5073855;28;19908;-61
2022/08/18 03:02:14;;;;;;;;;;;512.90;2380.80;;;;;;5074085;28;20003;-60
2022/08/18 03:04:39;;;;;;;;;;;512.90;2380.80;;;;;;5073957;28;19977;-56
2022/08/18 03:07:06;;;;;;;;;;;512.80;2380.80;;;;;;5074123;28;19908;-56
2022/08/18 03:09:32;;;;;;;;;;;512.80;2380.80;;;;;;5074120;28;20252;-61
2022/08/18 03:11:57;;;;;;;;;;;512.70;2380.80;;;;;;5073827;28;19916;-55
2022/08/18 03:14:24;;;;;;;;;;;512.70;2380.80;;;;;;5074107;28;20010;-60
2022/08/18 03:16:50;;;;;;;;;;;512.60;2380.80;;;;;;5073665;28;19983;-61
2022/08/18 03:19:16;;;;;;;;;;;512.70;2380.80;;;;;;5073691;28;19916;-56
2022/08/18 03:21:42;;;;;;;;;;;512.60;2380.80;;;;;;5073827;28;19955;-58
2022/08/18 03:24:08;;;;;;;;;;;512.70;2380.80;;;;;;5073668;28;20405;-59
2022/08/18 03:26:34;;;;;;;;;;;512.60;2380.80;;;;;;5073607;28;19952;-62
2022/08/18 03:29:00;;;;;;;;;;;512.50;2380.80;;;;;;5073456;28;20350;-56
2022/08/18 03:31:27;;;;;;;;;;;512.60;2380.80;;;;;;5073256;28;20003;-56
2022/08/18 03:33:53;;;;;;;;;;;512.70;2380.80;;;;;;5073686;28;19913;-62
2022/08/18 03:36:22;;;;;;;;;;;512.60;2380.80;;;;;;5073202;28;20325;-61
2022/08/18 03:38:48;;;;;;;;;;;512.60;2380.80;;;;;;5073247;28;19952;-56
2022/08/18 03:41:14;;;;;;;;;;;512.60;2380.80;;;;;;5073365;28;19936;-62
2022/08/18 03:43:40;;;;;;;;;;;512.60;2380.80;;;;;;5072252;28;20026;-62
2022/08/18 03:46:08;;;;;;;;;;;512.60;2380.80;;;;;;5073334;28;19915;-55
2022/08/18 03:48:34;;;;;;;;;;;512.70;2380.80;;;;;;5073034;28;20259;-62
2022/08/18 03:51:05;;;;;;;;;;;512.70;2380.80;;;;;;5073229;28;19965;-55
2022/08/18 03:53:32;;;;;;;;;;;512.70;2380.80;;;;;;5073300;28;19908;-55
2022/08/18 03:55:58;;;;;;;;;;;512.90;2380.80;;;;;;5072869;28;20369;-57
2022/08/18 03:58:24;;;;;;;;;;;512.90;2380.80;;;;;;5073405;28;19951;-61
2022/08/18 04:00:49;;;;;;;;;;;512.90;2380.80;;;;;;5074353;28;20393;-56
2022/08/18 04:03:15;;;;;;;;;;;537.60;2406.40;;;;;;5071941;28;19935;-58
2022/08/18 04:05:40;;;;;;;;;;;537.70;2406.40;;;;;;5074672;28;20328;-56
2022/08/18 04:08:06;;;;;;;;;;;537.80;2406.40;;;;;;5072876;28;19913;-60
2022/08/18 04:10:32;;;;;;;;;;;537.90;2406.40;;;;;;5072893;28;19909;-55
2022/08/18 04:12:57;;;;;;;;;;;537.90;2406.40;;;;;;5072652;28;19909;-56
2022/08/18 04:15:23;;;;;;;;;;;537.90;2406.40;;;;;;5072869;28;20359;-60
2022/08/18 04:17:49;;;;;;;;;;;538.00;2406.40;;;;;;5072412;28;19964;-60
2022/08/18 04:20:15;;;;;;;;;;;538.00;2406.40;;;;;;5072593;28;19916;-57
2022/08/18 04:22:40;;;;;;;;;;;538.00;2406.40;;;;;;5072487;28;19913;-61
2022/08/18 04:25:09;;;;;;;;;;;537.90;2406.40;;;;;;5072382;28;19990;-56
2022/08/18 04:27:38;;;;;;;;;;;538.00;2406.40;;;;;;5072565;28;20007;-57
2022/08/18 04:30:04;;;;;;;;;;;538.10;2406.40;;;;;;5072548;28;19962;-68
2022/08/18 04:32:30;;;;;;;;;;;538.30;2406.40;;;;;;5072134;28;19917;-57
2022/08/18 04:34:56;;;;;;;;;;;538.40;2406.40;;;;;;5072161;28;20359;-56
2022/08/18 04:37:21;;;;;;;;;;;538.50;2406.40;;;;;;5072253;28;19917;-57
2022/08/18 04:39:47;;;;;;;;;;;563.20;2432.00;;;;;;5072172;28;19908;-55
2022/08/18 04:42:13;;;;;;;;;;;563.30;2432.00;;;;;;5072187;28;19943;-56
2022/08/18 04:44:39;;;;;;;;;;;563.40;2432.00;;;;;;5072193;28;19970;-55
2022/08/18 04:47:06;;;;;;;;;;;563.70;2432.00;;;;;;5072117;28;20325;-55
2022/08/18 04:49:32;;;;;;;;;;;564.00;2432.00;;;;;;5071936;28;19908;-55
2022/08/18 04:54:42;;;;;;;;;;;615.10;2432.00;;;;;;5072193;28;19933;-55
2022/08/18 04:57:10;;;;;;;;;;;665.70;2406.40;;;;;;5071724;28;20007;-56
2022/08/18 04:59:35;;;;;;;;;;;666.10;2252.80;;;;;;5071039;28;19915;-56
2022/08/18 05:02:07;;;;;;;;;;;666.50;2201.60;;;;;;5071976;28;19916;-56
2022/08/18 05:04:34;;;;;;;;;;;691.40;2176.00;;;;;;5071121;28;19936;-56
2022/08/18 05:07:00;;;;;;;;;;;692.10;2048.00;;;;;;5071529;28;19913;-55
2022/08/18 05:09:25;;;;;;;;;;;692.10;2022.40;;;;;;5071849;28;20417;-56
2022/08/18 05:11:51;;;;;;;;;;;742.90;1920.00;;;;;;5071532;28;19942;-56
2022/08/18 05:14:17;;;;;;;;;;;793.70;1766.40;;;;;;5071620;28;19912;-56
2022/08/18 05:16:44;;;;;;;;;;;819.50;1664.00;;;;;;5071760;28;19931;-56
2022/08/18 05:19:13;;;;;;;;;;;820.10;1612.80;;;;;;5071543;28;19939;-57
2022/08/18 05:21:40;;;;;;;;;;;845.60;1536.00;;;;;;5071311;28;19909;-55
2022/08/18 05:24:07;;;;;;;;;;;870.90;1459.20;;;;;;5071347;28;19909;-57
2022/08/18 05:26:32;;;;;;;;;;;896.50;1382.40;;;;;;5071343;28;19913;-56
2022/08/18 05:28:58;;;;;;;;;;;896.90;1356.80;;;;;;5071097;28;19908;-56
2022/08/18 05:31:25;;;;;;;;;;;922.50;1331.20;;;;;;5071182;28;19934;-56
2022/08/18 05:33:52;;;;;;;;;;;947.30;1280.00;;;;;;5071378;28;20378;-57
2022/08/18 05:36:24;;;;;;;;;;;947.20;1280.00;;;;;;5071032;28;19917;-55
2022/08/18 05:38:57;;;;;;;;;;;922.50;1280.00;;;;;;5071111;28;20235;-57
2022/08/18 05:41:32;;;;;;;;;;;947.30;1254.40;;;;;;5071442;28;19913;-56
2022/08/18 05:43:58;;;;;;;;;;;947.70;1254.40;;;;;;5071076;28;19909;-56
2022/08/18 05:46:29;;;;;;;;;;;947.60;1254.40;;;;;;5071067;28;20422;-57
2022/08/18 05:48:54;;;;;;;;;;;947.70;1228.80;;;;;;5071134;28;19917;-56
2022/08/18 05:51:32;;;;;;;;;;;972.80;1254.40;;;;;;5070974;28;20057;-55
2022/08/18 05:56:45;;;;;;;;;;;998.60;1228.80;;;;;;5071393;28;19939;-57
2022/08/18 05:59:13;;;;;;;;;;;999.10;1203.20;;;;;;5071039;28;20432;-57
2022/08/18 06:01:41;;;;;;;;;;;999.00;1203.20;;;;;;5070587;28;20480;-57
2022/08/18 06:04:22;;;;;;;;;;;999.20;1203.20;;;;;;5070657;28;19913;-56
2022/08/18 06:06:49;;;;;;;;;;;1024.30;1152.00;;;;;;5070916;28;19962;-56
2022/08/18 06:09:26;;;;;;;;;;;1024.60;1126.40;;;;;;5071147;28;19952;-56
2022/08/18 06:11:54;;;;;;;;;;;1024.50;1126.40;;;;;;5073458;28;19916;-56
2022/08/18 06:14:21;;;;;;;;;;;999.20;1152.00;;;;;;5074959;28;19961;-57
2022/08/18 06:16:52;;;;;;;;;;;1024.30;1152.00;;;;;;5074763;28;19916;-56
2022/08/18 06:19:34;;;;;;;;;;;999.20;1152.00;;;;;;5074726;28;20039;-57
2022/08/18 06:22:12;;;;;;;;;;;998.80;1177.60;;;;;;5074626;28;19909;-56
2022/08/18 06:24:37;;;;;;;;;;;973.70;1203.20;;;;;;5074780;28;19909;-55
2022/08/18 06:27:23;;;;;;;;;;;999.20;1177.60;;;;;;5074890;28;19908;-57
2022/08/18 06:29:49;;;;;;;;;;;1024.10;1177.60;;;;;;5012542;28;19916;-56
2022/08/18 06:32:14;;;;;;;;;;;1050.30;1126.40;;;;;;5012947;28;19918;-55
2022/08/18 06:35:00;;;;;;;;;;;1075.40;1100.80;;;;;;5012593;28;19909;-56
2022/08/18 06:37:25;;;;;;;;;;;1075.70;1075.20;;;;;;5012573;28;19917;-54
2022/08/18 06:39:51;;;;;;;;;;;1075.20;1100.80;;;;;;5012690;28;19920;-57
2022/08/18 06:42:20;;;;;;;;;;;1075.40;1075.20;;;;;;5012421;28;19910;-56
2022/08/18 06:44:51;;;;;;;;;;;1075.70;1075.20;;;;;;5012540;28;19910;-56
2022/08/18 06:47:35;;;;;;;;;;;1101.00;1075.20;;;;;;5012345;28;19916;-57
2022/08/18 06:50:04;;;;;;;;;;;1075.90;1049.60;;;;;;5012692;28;19917;-56
2022/08/18 06:52:32;;;;;;;;;;;1101.20;1049.60;;;;;;5012452;28;19995;-57
2022/08/18 06:54:59;;;;;;;;;;;1100.90;1049.60;;;;;;5012268;28;19910;-57
2022/08/18 06:57:38;;;;;;;;;;;1101.30;1049.60;;;;;;5012211;28;19926;-57
2022/08/18 07:00:04;;;;;;;;;;;1101.50;1024.00;;;;;;5012319;28;19921;-57
2022/08/18 07:02:29;;;;;;;;;;;1075.70;1049.60;;;;;;5012201;28;19913;-55
2022/08/18 07:04:58;;;;;;;;;;;1101.10;1049.60;;;;;;5011958;28;19921;-57
2022/08/18 07:07:23;;;;;;;;;;;1101.20;1049.60;;;;;;5056370;28;19908;-56
2022/08/18 07:09:49;;;;;;;;;;;1126.90;1024.00;;;;;;5073920;28;20022;-57
2022/08/18 07:12:19;;;;;;;;;;;1126.70;1024.00;;;;;;5074141;28;20361;-57
2022/08/18 07:14:47;;;;;;;;;;;1126.50;1024.00;;;;;;5073809;28;19912;-57
2022/08/18 07:17:21;;;;;;;;;;;1126.50;1024.00;;;;;;5073997;28;20355;-57
2022/08/18 07:20:05;;;;;;;;;;;1101.60;1024.00;;;;;;5073348;28;19954;-57
2022/08/18 07:22:31;;;;;;;;;;;1126.90;1024.00;;;;;;5073144;28;19909;-57
2022/08/18 07:24:58;;;;;;;;;;;1126.70;1024.00;;;;;;5073686;28;20420;-57
2022/08/18 07:27:30;;;;;;;;;;;1101.30;1024.00;;;;;;5073802;28;19908;-57
2022/08/18 07:29:58;;;;;;;;;;;1101.30;1024.00;;;;;;5073359;28;20355;-55
2022/08/18 07:32:26;;;;;;;;;;;1101.50;1024.00;;;;;;5073720;28;19964;-58
2022/08/18 07:34:56;;;;;;;;;;;1101.60;1024.00;;;;;;5072970;28;19913;-57
2022/08/18 07:37:36;;;;;;;;;;;1126.50;1024.00;;;;;;5070419;28;20018;-57
2022/08/18 07:40:11;;;;;;;;;;;1126.70;1024.00;;;;;;5070423;28;19916;-57
2022/08/18 07:42:40;;;;;;;;;;;1127.30;1024.00;;;;;;5075150;28;19935;-56
2022/08/18 07:45:11;;;;;;;;;;;1178.30;947.20;;;;;;5082032;28;19952;-57
2022/08/18 07:47:36;;;;;;;;;;;1178.00;947.20;;;;;;5080771;28;20003;-57
2022/08/18 07:50:03;;;;;;;;;;;1178.10;947.20;;;;;;5082374;28;20070;-57
2022/08/18 07:52:30;;;;;;;;;;;1152.60;998.40;;;;;;5082196;28;19999;-55
2022/08/18 07:55:05;;;;;;;;;;;1152.50;998.40;;;;;;5080555;28;19908;-56
2022/08/18 07:57:45;;;;;;;;;;;1152.20;998.40;;;;;;5081109;28;19916;-55
2022/08/18 08:00:13;;;;;;;;;;;1152.70;972.80;;;;;;5081566;28;19927;-57
2022/08/18 08:03:00;;;;;;;;;;;1152.90;972.80;;;;;;5078094;28;19912;-58
2022/08/18 08:05:38;;;;;;;;;;;1152.20;998.40;;;;;;5070977;28;19921;-57
2022/08/18 08:08:07;;;;;;;;;;;1126.90;1024.00;;;;;;5072382;28;19915;-56
2022/08/18 08:10:40;;;;;;;;;;;1127.10;998.40;;;;;;5072432;28;19908;-58
2022/08/18 08:13:12;;;;;;;;;;;1152.20;972.80;;;;;;5072160;28;19909;-55
2022/08/18 08:15:48;;;;;;;;;;;1101.70;998.40;;;;;;5072780;28;19954;-56
2022/08/18 08:18:29;;;;;;;;;;;1127.10;998.40;;;;;;5072693;28;19916;-55
2022/08/18 08:20:56;;;;;;;;;;;1177.60;947.20;;;;;;5072896;28;20252;-57
2022/08/18 08:23:26;;;;;;;;;;;1178.10;921.60;;;;;;5072779;28;19908;-57
2022/08/18 08:25:58;;;;;;;;;;;1177.70;921.60;;;;;;5072561;28;19963;-57
2022/08/18 08:28:23;;;;;;;;;;;1152.60;947.20;;;;;;5072613;28;19954;-57
2022/08/18 08:30:54;;;;;;;;;;;1178.20;896.00;;;;;;5072074;28;19912;-57
2022/08/18 08:33:35;;;;;;;;;;;1177.70;921.60;;;;;;5072333;28;19913;-57
2022/08/18 08:36:09;;;;;;;;;;;1178.20;870.40;;;;;;5072252;28;19994;-58
2022/08/18 08:38:38;;;;;;;;;;;1203.20;921.60;;;;;;5072326;28;19912;-54
2022/08/18 08:41:07;;;;;;;;;;;1152.10;896.00;;;;;;5072189;28;19965;-59
2022/08/18 08:43:39;;;;;;;;;;;1101.10;947.20;;;;;;5072086;28;19915;-55
2022/08/18 08:46:05;;;;;;;;;;;1049.90;972.80;;;;;;5072095;28;19909;-58
2022/08/18 08:48:33;;;;;;;;;;;1024.50;972.80;;;;;;5072176;28;19914;-56
2022/08/18 08:51:01;;;;;;;;;;;1024.40;998.40;;;;;;5072013;28;19908;-57
2022/08/18 08:53:31;;;;;;;;;;;1024.00;972.80;;;;;;5071959;28;20374;-57
2022/08/18 08:55:59;;;;;;;;;;;1024.00;998.40;;;;;;5071899;28;19963;-57
2022/08/18 08:58:30;;;;;;;;;;;998.70;1024.00;;;;;;5072056;28;19956;-57
2022/08/18 09:00:57;;;;;;;;;;;973.10;1049.60;;;;;;5071589;28;20011;-56
2022/08/18 09:03:41;;;;;;;;;;;973.20;1100.80;;;;;;5072054;28;19913;-56
2022/08/18 09:06:25;;;;;;;;;;;972.80;1100.80;;;;;;5071459;28;20396;-57
2022/08/18 09:08:54;;;;;;;;;;;972.90;1075.20;;;;;;5071752;28;19909;-57
2022/08/18 09:11:28;;;;;;;;;;;973.20;1075.20;;;;;;5071698;28;19915;-58
2022/08/18 09:14:12;;;;;;;;;;;972.80;1100.80;;;;;;5071856;28;19908;-58
2022/08/18 09:16:38;;;;;;;;;;;;;;;;;;5071307;28;19949;-56
2022/08/18 09:19:12;;;;;;;;;;;972.90;1100.80;;;;;;5071664;28;19909;-58
2022/08/18 09:21:59;;;;;;;;;;;947.40;1075.20;;;;;;5071252;28;19915;-57
2022/08/18 09:24:30;;;;;;;;;;;947.60;1100.80;;;;;;5071502;28;20435;-57
2022/08/18 09:27:01;;;;;;;;;;;947.60;1075.20;;;;;;5071395;28;20382;-57
2022/08/18 09:29:36;;;;;;;;;;;922.10;1100.80;;;;;;5071253;28;19909;-56
2022/08/18 09:32:17;;;;;;;;;;;922.00;1126.40;;;;;;5071385;28;19923;-56
2022/08/18 09:34:45;;;;;;;;;;;922.00;1126.40;;;;;;5071273;28;19915;-55
2022/08/18 09:37:12;;;;;;;;;;;922.40;1126.40;;;;;;5071387;28;20011;-56
2022/08/18 09:42:32;;;;;;;;;;;922.30;1126.40;;;;;;5071280;28;19915;-57
2022/08/18 09:45:00;;;;;;;;;;;922.40;1100.80;;;;;;5070928;28;19916;-56
2022/08/18 09:47:25;;;;;;;;;;;947.20;1075.20;;;;;;5070625;28;19940;-56
2022/08/18 09:49:52;;;;;;;;;;;947.30;1075.20;;;;;;5071078;28;20017;-56
2022/08/18 09:52:21;;;;;;;;;;;947.40;1075.20;;;;;;5070907;28;19981;-58
2022/08/18 09:54:52;;;;;;;;;;;947.50;1075.20;;;;;;5071025;28;19924;-56
2022/08/18 09:57:24;;;;;;;;;;;947.50;1100.80;;;;;;5070872;28;19927;-58
2022/08/18 09:59:51;;;;;;;;;;;947.50;1075.20;;;;;;5070709;28;19999;-57
2022/08/18 10:02:26;;;;;;;;;;;947.50;1049.60;;;;;;5070736;28;19917;-57
2022/08/18 10:05:12;;;;;;;;;;;947.40;1049.60;;;;;;5070907;28;19925;-57
2022/08/18 10:07:39;;;;;;;;;;;947.50;1075.20;;;;;;5063460;28;20435;-57
2022/08/18 10:10:23;;;;;;;;;;;947.60;1075.20;;;;;;5070935;28;20290;-58
2022/08/18 10:12:49;;;;;;;;;;;947.50;1049.60;;;;;;5070727;28;19908;-58
2022/08/18 10:15:14;;;;;;;;;;;947.50;1049.60;;;;;;5070930;28;19919;-59
2022/08/18 10:18:03;;;;;;;;;;;947.50;1075.20;;;;;;5070722;28;19924;-56
2022/08/18 10:20:34;;;;;;;;;;;947.50;1049.60;;;;;;5070662;28;20260;-55
2022/08/18 10:23:00;;;;;;;;;;;947.50;1049.60;;;;;;5071019;28;19963;-58
2022/08/18 10:25:37;;;;;;;;;;;947.60;1024.00;;;;;;5070801;28;20313;-56
2022/08/18 10:28:04;;;;;;;;;;;947.60;1024.00;;;;;;5070973;28;20326;-56
2022/08/18 10:30:33;;;;;;;;;;;947.50;1024.00;;;;;;5070512;28;19912;-55
2022/08/18 10:33:03;;;;;;;;;;;947.50;1049.60;;;;;;5070548;28;19912;-57
2022/08/18 10:35:35;;;;;;;;;;;947.20;1024.00;;;;;;5070518;28;19930;-58
2022/08/18 10:38:12;;;;;;;;;;;922.50;1049.60;;;;;;5070665;28;19960;-56
2022/08/18 10:40:42;;;;;;;;;;;922.40;1049.60;;;;;;5070470;28;19915;-56
2022/08/18 10:43:18;;;;;;;;;;;922.50;1049.60;;;;;;5070579;28;20003;-57
2022/08/18 10:45:45;;;;;;;;;;;922.50;1049.60;;;;;;5070899;28;19909;-57
2022/08/18 10:48:10;;;;;;;;;;;922.50;1049.60;;;;;;5070350;28;19960;-56
2022/08/18 10:50:48;;;;;;;;;;;922.50;1049.60;;;;;;5070334;28;19947;-57
2022/08/18 10:53:33;;;;;;;;;;;947.20;1049.60;;;;;;5070569;28;20420;-58
2022/08/18 10:56:09;;;;;;;;;;;922.50;1049.60;;;;;;5070311;28;19923;-57
2022/08/18 10:58:57;;;;;;;;;;;922.50;1049.60;;;;;;5072487;28;19920;-58
2022/08/18 11:01:41;;;;;;;;;;;922.50;1075.20;;;;;;5032122;28;20012;-57
2022/08/18 11:04:25;;;;;;;;;;;922.50;1075.20;;;;;;5031736;28;20318;-59
2022/08/18 11:06:55;;;;;;;;;;;922.50;1049.60;;;;;;5031786;28;19932;-56
2022/08/18 11:09:25;;;;;;;;;;;922.40;998.40;;;;;;5031314;28;19913;-58
2022/08/18 11:11:52;;;;;;;;;;;922.50;998.40;;;;;;5030409;28;19913;-57
2022/08/18 11:14:24;;;;;;;;;;;922.40;1024.00;;;;;;5030259;28;19956;-57
2022/08/18 11:17:07;;;;;;;;;;;922.30;1049.60;;;;;;5030061;28;19917;-58
2022/08/18 11:19:51;;;;;;;;;;;922.40;1075.20;;;;;;5030365;28;19915;-55
2022/08/18 11:22:21;;;;;;;;;;;922.30;1075.20;;;;;;5029885;28;19913;-58
2022/08/18 11:24:46;;;;;;;;;;;922.30;1049.60;;;;;;5030059;28;19910;-56
2022/08/18 11:27:17;;;;;;;;;;;922.40;1049.60;;;;;;5030254;28;19979;-58
2022/08/18 11:29:43;;;;;;;;;;;922.30;1049.60;;;;;;5029896;28;19932;-56
2022/08/18 11:32:34;;;;;;;;;;;922.10;1049.60;;;;;;5029681;28;20108;-57
2022/08/18 11:35:02;;;;;;;;;;;922.20;1049.60;;;;;;5025972;28;19921;-59
2022/08/18 11:37:32;;;;;;;;;;;922.30;1024.00;;;;;;5034764;28;19925;-59
2022/08/18 11:39:59;;;;;;;;;;;922.20;1049.60;;;;;;5069703;28;19942;-56
2022/08/18 11:42:37;;;;;;;;;;;922.40;1024.00;;;;;;5072233;28;19943;-56
2022/08/18 11:45:03;;;;;;;;;;;922.40;1024.00;;;;;;5070911;28;19958;-56
2022/08/18 11:47:28;;;;;;;;;;;922.40;1024.00;;;;;;5071875;28;20378;-56
2022/08/18 11:49:56;;;;;;;;;;;922.40;1049.60;;;;;;5071955;28;19912;-56
2022/08/18 11:52:26;;;;;;;;;;;922.50;1049.60;;;;;;5072047;28;20361;-56
2022/08/18 11:54:57;;;;;;;;;;;922.40;1024.00;;;;;;5071851;28;20002;-57
2022/08/18 11:57:44;;;;;;;;;;;922.30;1024.00;;;;;;5071324;28;19928;-56
2022/08/18 12:00:28;;;;;;;;;;;922.40;1049.60;;;;;;5062523;28;20011;-58
2022/08/18 12:03:01;;;;;;;;;;;922.40;1049.60;;;;;;5068792;28;19924;-56
2022/08/18 12:05:26;;;;;;;;;;;922.40;1024.00;;;;;;5068853;28;19920;-56
2022/08/18 12:07:52;;;;;;;;;;;922.50;1024.00;;;;;;5071883;28;20450;-57
2022/08/18 12:10:17;;;;;;;;;;;922.20;1024.00;;;;;;5071055;28;19920;-57
2022/08/18 12:12:46;;;;;;;;;;;922.20;1049.60;;;;;;5071676;28;19952;-57
2022/08/18 12:15:11;;;;;;;;;;;922.20;1024.00;;;;;;5071278;28;19927;-56
2022/08/18 12:17:37;;;;;;;;;;;922.10;1024.00;;;;;;5071233;28;19921;-55
2022/08/18 12:20:06;;;;;;;;;;;922.20;1049.60;;;;;;5071378;28;19913;-55
2022/08/18 12:22:32;;;;;;;;;;;922.20;1049.60;;;;;;5070943;28;20298;-56
2022/08/18 12:24:58;;;;;;;;;;;922.30;1049.60;;;;;;5071056;28;19916;-54
2022/08/18 12:27:25;;;;;;;;;;;922.30;1049.60;;;;;;5071400;28;19908;-57
2022/08/18 12:29:54;;;;;;;;;;;922.40;1049.60;;;;;;5070919;28;19910;-55
2022/08/18 12:32:21;;;;;;;;;;;922.50;1049.60;;;;;;5070994;28;19919;-57
2022/08/18 12:34:47;;;;;;;;;;;922.40;1024.00;;;;;;5071058;28;19943;-55
2022/08/18 12:37:17;;;;;;;;;;;922.50;1049.60;;;;;;5070877;28;19968;-54
2022/08/18 12:39:43;;;;;;;;;;;947.20;1049.60;;;;;;5070979;28;19909;-57
2022/08/18 12:42:09;;;;;;;;;;;947.20;1049.60;;;;;;5070676;28;19989;-57
2022/08/18 12:44:35;;;;;;;;;;;947.30;1049.60;;;;;;5068392;28;19912;-54
2022/08/18 12:47:02;;;;;;;;;;;922.50;1024.00;;;;;;5071610;28;19908;-55
2022/08/18 12:49:27;;;;;;;;;;;922.50;1024.00;;;;;;5071976;28;19909;-54
2022/08/18 12:51:54;;;;;;;;;;;947.20;1049.60;;;;;;5072300;28;19908;-58
2022/08/18 12:54:20;;;;;;;;;;;922.50;1049.60;;;;;;5071807;28;20380;-56
2022/08/18 12:56:47;;;;;;;;;;;922.50;1024.00;;;;;;5072132;28;20015;-56
2022/08/18 12:59:13;;;;;;;;;;;922.50;1049.60;;;;;;5072204;28;19916;-55
2022/08/18 13:01:39;;;;;;;;;;;947.20;1024.00;;;;;;5070036;28;19931;-56
2022/08/18 13:04:05;;;;;;;;;;;922.40;1024.00;;;;;;5071085;28;20128;-57
2022/08/18 13:06:33;;;;;;;;;;;922.40;1024.00;;;;;;5070915;28;20313;-57
2022/08/18 13:08:58;;;;;;;;;;;922.30;1024.00;;;;;;5070357;28;20366;-56
2022/08/18 13:11:24;;;;;;;;;;;922.40;1049.60;;;;;;5071298;28;19908;-55
2022/08/18 13:13:50;;;;;;;;;;;922.40;1049.60;;;;;;5071277;28;20263;-56
2022/08/18 13:16:17;;;;;;;;;;;922.50;1049.60;;;;;;5071362;28;20462;-57
2022/08/18 13:18:43;;;;;;;;;;;922.50;998.40;;;;;;5071289;28;19908;-56
2022/08/18 13:21:10;;;;;;;;;;;922.50;1049.60;;;;;;5070975;28;19969;-56
2022/08/18 13:23:35;;;;;;;;;;;922.50;1024.00;;;;;;5071592;28;20014;-56
2022/08/18 13:26:02;;;;;;;;;;;922.50;998.40;;;;;;5071343;28;19948;-56
2022/08/18 13:28:28;;;;;;;;;;;947.20;1024.00;;;;;;5071411;28;19944;-55
2022/08/18 13:30:53;;;;;;;;;;;947.20;1024.00;;;;;;5071422;28;19913;-56
2022/08/18 13:33:19;;;;;;;;;;;947.20;1024.00;;;;;;5071301;28;19913;-58
2022/08/18 13:35:45;;;;;;;;;;;922.40;998.40;;;;;;5071375;28;19983;-57
2022/08/18 13:38:12;;;;;;;;;;;922.30;1024.00;;;;;;5071078;28;19924;-57
2022/08/18 13:40:38;;;;;;;;;;;922.40;1049.60;;;;;;5071184;28;19915;-54
2022/08/18 13:43:04;;;;;;;;;;;922.40;1049.60;;;;;;5071464;28;19908;-57
2022/08/18 13:45:29;;;;;;;;;;;922.50;1024.00;;;;;;5070818;28;20370;-58
2022/08/18 13:47:55;;;;;;;;;;;922.40;1024.00;;;;;;5071023;28;19919;-56
2022/08/18 13:50:21;;;;;;;;;;;922.50;1049.60;;;;;;5070719;28;19916;-54
2022/08/18 13:52:48;;;;;;;;;;;922.40;1024.00;;;;;;5071138;28;20260;-55
2022/08/18 13:55:16;;;;;;;;;;;922.30;1024.00;;;;;;5071326;28;19908;-55
2022/08/18 13:57:48;;;;;;;;;;;922.30;1024.00;;;;;;5071168;28;20019;-55
2022/08/18 14:00:16;;;;;;;;;;;922.20;1024.00;;;;;;5069167;28;19913;-55
2022/08/18 14:02:41;;;;;;;;;;;922.10;1024.00;;;;;;5070703;28;19952;-57
2022/08/18 14:05:08;;;;;;;;;;;922.10;1024.00;;;;;;5070628;28;20347;-55